Weather at Emerald Airport

Public forecast

Using degrees Celsius for public forecast. Weather courtesy of forecast.io.

Closest aviation weather report (METAR) to Emerald Airport

Closest report is Rockhampton Airport, 127.0 nm (235.1 km) E.

2024/05/30 12:30 (retrieved 13 minutes ago)

YBRK 301230Z AUTO 15004KT 9999 // SCT061 19/18 Q1023 RF000/0000

Closest aviation forecast (TAF) to Emerald Airport

Closest forecast is Rockhampton Airport, 127.0 nm (235.1 km) E.

2024/05/30 12:36 (retrieved 7 minutes ago)

TAF YBRK 301059Z 3012/3112 14005KT 9999 SCT010 BKN030 FM310000 06010KT 9999 SCT040 FM310900 13004KT 9999 SCT020